Time;durP1;ratioP1;P1;durP2;ratioP2;P2;SDS_P1;SDS_P2;PMS_P1;PMS_P2;Temp;Humidity;BMP_temperature;BMP_pressure;BME280_temperature;BME280_humidity;BME280_pressure;Samples;Min_cycle;Max_cycle;Signal;HPM_P1;HPM_P2
2023/10/27 00:01:31;;;;;;;28.93;15.70;;;10.20;99.90;;;;;;5050803;28;20245;-62
2023/10/27 00:03:56;;;;;;;33.67;16.13;;;10.20;99.90;;;;;;5050988;28;20178;-65
2023/10/27 00:06:22;;;;;;;24.70;15.00;;;10.10;99.90;;;;;;5048881;28;20222;-62
2023/10/27 00:08:48;;;;;;;27.77;16.50;;;10.10;99.90;;;;;;5064750;28;20170;-62
2023/10/27 00:11:13;;;;;;;28.57;15.83;;;10.10;99.90;;;;;;5070943;28;20194;-62
2023/10/27 00:13:39;;;;;;;30.10;17.63;;;10.10;99.90;;;;;;5052761;28;20633;-62
2023/10/27 00:16:11;;;;;;;27.43;17.07;;;10.10;99.90;;;;;;5070203;28;20192;-61
2023/10/27 00:18:37;;;;;;;27.27;17.43;;;10.00;99.90;;;;;;5070401;28;20182;-62
2023/10/27 00:21:03;;;;;;;33.30;16.80;;;10.10;99.90;;;;;;5070586;28;20416;-62
2023/10/27 00:23:29;;;;;;;29.50;16.37;;;10.10;99.90;;;;;;5059642;28;20509;-63
2023/10/27 00:25:54;;;;;;;34.20;16.43;;;10.00;99.90;;;;;;5050324;28;20433;-62
2023/10/27 00:28:20;;;;;;;37.50;17.40;;;10.00;99.90;;;;;;5050467;28;20208;-60
2023/10/27 00:30:46;;;;;;;32.77;17.23;;;10.00;99.90;;;;;;5050573;28;20206;-60
2023/10/27 00:33:11;;;;;;;28.57;17.73;;;10.00;99.90;;;;;;5050427;28;20221;-63
2023/10/27 00:35:37;;;;;;;29.20;16.53;;;10.00;99.90;;;;;;5050457;28;20223;-61
2023/10/27 00:38:03;;;;;;;29.87;15.77;;;10.00;99.90;;;;;;5050523;28;20191;-58
2023/10/27 00:40:29;;;;;;;28.27;16.70;;;10.00;99.90;;;;;;5048862;28;20425;-62
2023/10/27 00:42:58;;;;;;;29.90;15.60;;;10.00;99.90;;;;;;5050652;28;20221;-62
2023/10/27 00:45:25;;;;;;;25.63;14.27;;;10.00;99.90;;;;;;5065023;28;20194;-63
2023/10/27 00:47:50;;;;;;;25.93;15.43;;;10.00;99.90;;;;;;5070524;28;20518;-62
2023/10/27 00:50:16;;;;;;;27.60;14.87;;;10.00;99.90;;;;;;5052381;28;20497;-62
2023/10/27 00:52:42;;;;;;;29.27;14.77;;;10.00;99.90;;;;;;5050350;28;20197;-62
2023/10/27 00:55:08;;;;;;;27.07;15.93;;;10.00;99.90;;;;;;5056054;28;20424;-64
2023/10/27 00:57:36;;;;;;;30.63;16.07;;;9.90;99.90;;;;;;5053859;28;20554;-61
2023/10/27 01:00:04;;;;;;;24.77;13.67;;;9.90;99.90;;;;;;5049800;28;20501;-59
2023/10/27 01:02:29;;;;;;;34.40;13.87;;;9.90;99.90;;;;;;5050023;28;20440;-62
2023/10/27 01:04:55;;;;;;;31.57;16.50;;;9.90;99.90;;;;;;5049703;28;20425;-62
2023/10/27 01:07:23;;;;;;;29.00;15.40;;;9.90;99.90;;;;;;5050282;28;20343;-62
2023/10/27 01:09:48;;;;;;;34.63;15.77;;;9.90;99.90;;;;;;5050054;28;20183;-62
2023/10/27 01:12:14;;;;;;;36.97;17.50;;;9.90;99.90;;;;;;5050056;28;20413;-62
2023/10/27 01:14:39;;;;;;;35.00;16.40;;;9.90;99.90;;;;;;5041178;28;20182;-62
2023/10/27 01:17:05;;;;;;;33.57;16.30;;;9.90;99.90;;;;;;5049629;28;20171;-62
2023/10/27 01:19:31;;;;;;;32.90;15.93;;;9.90;99.90;;;;;;5059478;28;20636;-62
2023/10/27 01:21:56;;;;;;;30.30;15.60;;;9.90;99.90;;;;;;5061785;28;20179;-62
2023/10/27 01:24:22;;;;;;;35.90;16.00;;;10.00;99.90;;;;;;5049994;28;20198;-61
2023/10/27 01:26:49;;;;;;;32.80;16.87;;;10.00;99.90;;;;;;5050097;28;20192;-59
2023/10/27 01:29:15;;;;;;;40.47;18.83;;;10.00;99.90;;;;;;5047674;28;20637;-60
2023/10/27 01:31:41;;;;;;;34.03;16.07;;;9.90;99.90;;;;;;5049534;28;20410;-61
2023/10/27 01:34:06;;;;;;;42.93;18.80;;;9.90;99.90;;;;;;5044956;28;20465;-63
2023/10/27 01:36:32;;;;;;;37.63;21.00;;;9.90;99.90;;;;;;5069670;28;20742;-61
2023/10/27 01:38:57;;;;;;;40.03;17.57;;;9.90;99.90;;;;;;5068694;28;20245;-61
2023/10/27 01:41:23;;;;;;;43.17;20.73;;;9.90;99.90;;;;;;5043689;28;20199;-60
2023/10/27 01:43:48;;;;;;;36.40;17.70;;;9.90;99.90;;;;;;5052600;28;20595;-60
2023/10/27 01:46:14;;;;;;;42.17;18.20;;;9.90;99.90;;;;;;5069800;28;20200;-59
2023/10/27 01:48:40;;;;;;;42.53;19.90;;;9.80;99.90;;;;;;5054727;28;20198;-60
2023/10/27 01:51:05;;;;;;;35.80;17.60;;;9.90;99.90;;;;;;5054340;28;20194;-60
2023/10/27 01:53:31;;;;;;;43.00;18.47;;;9.80;99.90;;;;;;5046675;28;20167;-61
2023/10/27 01:55:57;;;;;;;48.17;19.87;;;9.90;99.90;;;;;;5051556;28;20187;-61
2023/10/27 01:58:27;;;;;;;43.70;17.67;;;9.80;99.90;;;;;;5029900;28;20486;-58
2023/10/27 02:00:53;;;;;;;40.87;19.83;;;9.80;99.90;;;;;;5052842;28;20179;-59
2023/10/27 02:03:18;;;;;;;40.23;18.60;;;9.80;99.90;;;;;;5048900;28;20418;-59
2023/10/27 02:05:44;;;;;;;50.90;20.10;;;9.80;99.90;;;;;;5052668;28;20237;-56
2023/10/27 02:08:10;;;;;;;48.57;21.00;;;9.80;99.90;;;;;;5050755;28;20532;-56
2023/10/27 02:10:35;;;;;;;37.60;18.60;;;9.80;99.90;;;;;;5052805;28;20174;-61
2023/10/27 02:13:01;;;;;;;40.90;19.30;;;9.80;99.90;;;;;;5052795;28;20246;-56
2023/10/27 02:15:26;;;;;;;41.70;19.23;;;9.80;99.90;;;;;;5052629;28;20645;-59
2023/10/27 02:17:52;;;;;;;52.57;20.70;;;9.80;99.90;;;;;;5052922;28;20232;-61
2023/10/27 02:20:17;;;;;;;38.47;18.47;;;9.80;99.90;;;;;;5052682;28;20171;-63
2023/10/27 02:22:43;;;;;;;39.17;19.00;;;9.80;99.90;;;;;;5049665;28;20171;-62
2023/10/27 02:25:09;;;;;;;43.13;21.87;;;9.90;99.90;;;;;;5034079;28;20306;-63
2023/10/27 02:27:38;;;;;;;42.83;19.97;;;9.90;99.90;;;;;;5052417;28;20224;-62
2023/10/27 02:30:06;;;;;;;39.47;19.13;;;9.90;99.90;;;;;;5052366;28;20167;-62
2023/10/27 02:32:31;;;;;;;36.40;19.20;;;9.90;99.90;;;;;;5051819;28;20417;-62
2023/10/27 02:34:57;;;;;;;45.77;20.23;;;9.90;99.90;;;;;;5051641;28;20908;-62
2023/10/27 02:37:23;;;;;;;36.07;16.73;;;9.90;99.90;;;;;;5052329;28;20237;-60
2023/10/27 02:39:49;;;;;;;33.10;16.43;;;9.90;99.90;;;;;;5050731;28;20516;-62
2023/10/27 02:42:15;;;;;;;31.03;17.00;;;9.90;99.90;;;;;;5052219;28;20505;-59
2023/10/27 02:44:41;;;;;;;29.87;15.90;;;9.90;99.90;;;;;;5052617;28;20183;-61
2023/10/27 02:47:07;;;;;;;29.30;14.97;;;9.90;99.90;;;;;;5052073;28;20195;-62
2023/10/27 02:49:32;;;;;;;29.10;16.23;;;9.90;99.90;;;;;;5051942;28;20498;-60
2023/10/27 02:51:58;;;;;;;30.63;15.83;;;9.90;99.90;;;;;;5050200;28;20589;-63
2023/10/27 02:54:23;;;;;;;32.33;17.83;;;9.90;99.90;;;;;;5052469;28;20171;-60
2023/10/27 02:56:49;;;;;;;32.80;15.07;;;10.00;99.90;;;;;;5051082;28;20187;-62
2023/10/27 02:59:15;;;;;;;30.37;14.50;;;9.90;99.90;;;;;;5051726;28;20205;-62
2023/10/27 03:01:44;;;;;;;28.40;14.57;;;10.00;99.90;;;;;;5051874;28;20186;-63
2023/10/27 03:04:10;;;;;;;31.63;15.63;;;10.00;99.90;;;;;;5052468;28;20182;-60
2023/10/27 03:06:36;;;;;;;30.97;16.27;;;10.00;99.90;;;;;;5051183;28;20483;-63
2023/10/27 03:09:03;;;;;;;33.13;15.83;;;10.00;99.90;;;;;;5048500;28;20414;-60
2023/10/27 03:11:28;;;;;;;31.97;17.57;;;10.00;99.90;;;;;;5048558;28;20179;-60
2023/10/27 03:13:54;;;;;;;26.60;15.80;;;10.10;99.90;;;;;;5051999;28;20968;-60
2023/10/27 03:16:19;;;;;;;27.00;15.80;;;10.10;99.90;;;;;;5051822;28;20231;-59
2023/10/27 03:18:45;;;;;;;28.63;15.67;;;10.00;99.90;;;;;;5051895;28;20186;-60
2023/10/27 03:21:11;;;;;;;27.67;15.77;;;10.00;99.90;;;;;;5051825;28;20715;-63
2023/10/27 03:23:36;;;;;;;27.10;14.50;;;10.00;99.90;;;;;;5052707;28;20262;-62
2023/10/27 03:26:02;;;;;;;23.77;15.33;;;10.00;99.90;;;;;;5043370;28;20202;-60
2023/10/27 03:28:28;;;;;;;26.13;14.77;;;10.00;99.90;;;;;;5051302;28;20294;-63
2023/10/27 03:30:54;;;;;;;25.37;15.17;;;10.10;99.90;;;;;;5050627;28;20178;-63
2023/10/27 03:33:19;;;;;;;31.60;17.23;;;10.10;99.90;;;;;;5067360;28;20170;-62
2023/10/27 03:35:46;;;;;;;29.80;15.73;;;10.10;99.90;;;;;;5050904;28;20199;-62
2023/10/27 03:38:12;;;;;;;27.30;17.57;;;10.00;99.90;;;;;;5051789;28;20175;-62
2023/10/27 03:40:38;;;;;;;25.13;15.90;;;10.00;99.90;;;;;;5050796;28;20432;-62
2023/10/27 03:43:04;;;;;;;28.40;14.93;;;10.10;99.90;;;;;;5049690;28;20430;-60
2023/10/27 03:45:30;;;;;;;26.77;15.00;;;10.10;99.90;;;;;;5051067;28;20490;-61
2023/10/27 03:47:55;;;;;;;21.90;15.30;;;10.10;99.90;;;;;;5051546;28;20187;-63
2023/10/27 03:50:21;;;;;;;24.20;15.30;;;10.10;99.90;;;;;;5051208;28;20634;-63
2023/10/27 03:52:47;;;;;;;21.73;14.03;;;10.10;99.90;;;;;;5050175;28;20182;-62
2023/10/27 03:55:12;;;;;;;22.73;15.83;;;10.00;99.90;;;;;;5056942;28;20198;-61
2023/10/27 03:57:40;;;;;;;24.30;16.23;;;10.00;99.90;;;;;;5070722;28;20174;-62
2023/10/27 04:00:07;;;;;;;27.23;16.60;;;10.00;99.90;;;;;;5063477;28;20179;-63
2023/10/27 04:02:33;;;;;;;26.97;16.90;;;10.00;99.90;;;;;;5047788;28;20985;-61
2023/10/27 04:04:59;;;;;;;24.17;14.47;;;10.00;99.90;;;;;;5051139;28;20433;-60
2023/10/27 04:07:25;;;;;;;27.90;16.10;;;10.00;99.90;;;;;;5051503;28;20799;-62
2023/10/27 04:09:51;;;;;;;25.47;15.20;;;10.00;99.90;;;;;;5049824;28;20171;-62
2023/10/27 04:12:16;;;;;;;26.33;15.33;;;10.00;99.90;;;;;;5050380;28;20512;-62
2023/10/27 04:14:42;;;;;;;26.30;17.30;;;10.00;99.90;;;;;;5050688;28;20676;-63
2023/10/27 04:17:08;;;;;;;24.13;15.77;;;10.00;99.90;;;;;;5050866;28;20217;-64
2023/10/27 04:19:33;;;;;;;32.80;16.03;;;10.00;99.90;;;;;;5050704;28;20175;-62
2023/10/27 04:21:59;;;;;;;29.07;16.33;;;10.00;99.90;;;;;;5051061;28;20727;-62
2023/10/27 04:24:25;;;;;;;28.27;16.50;;;10.00;99.90;;;;;;5051057;28;20197;-60
2023/10/27 04:26:51;;;;;;;28.07;17.37;;;10.00;99.90;;;;;;5041450;28;20203;-60
2023/10/27 04:29:17;;;;;;;25.50;15.80;;;10.00;99.90;;;;;;5060634;28;20408;-62
2023/10/27 04:31:43;;;;;;;31.30;17.90;;;10.00;99.90;;;;;;5049889;28;20210;-62
2023/10/27 04:34:10;;;;;;;29.23;15.50;;;9.90;99.90;;;;;;5046069;28;20471;-62
2023/10/27 04:36:36;;;;;;;23.63;15.17;;;9.90;99.90;;;;;;5065489;28;20463;-62
2023/10/27 04:39:03;;;;;;;27.43;17.33;;;9.90;99.90;;;;;;5069254;28;20409;-61
2023/10/27 04:41:30;;;;;;;27.80;15.93;;;9.90;99.90;;;;;;5055753;28;20753;-62
2023/10/27 04:43:56;;;;;;;26.20;16.27;;;9.80;99.90;;;;;;5053296;28;20437;-62
2023/10/27 04:46:22;;;;;;;28.97;16.30;;;9.80;99.90;;;;;;5042519;28;20960;-59
2023/10/27 04:48:47;;;;;;;24.77;16.67;;;9.90;99.90;;;;;;5037107;28;20457;-62
2023/10/27 04:51:13;;;;;;;34.30;17.70;;;9.80;99.90;;;;;;5042006;28;20172;-58
2023/10/27 04:53:39;;;;;;;25.23;15.90;;;9.80;99.90;;;;;;5041810;28;20175;-63
2023/10/27 04:56:05;;;;;;;29.37;17.00;;;9.90;99.90;;;;;;5032040;28;20199;-64
2023/10/27 04:58:30;;;;;;;23.30;16.13;;;9.90;99.90;;;;;;5050926;28;20175;-64
2023/10/27 05:00:56;;;;;;;25.13;15.90;;;9.80;99.90;;;;;;5051364;28;20980;-63
2023/10/27 05:03:21;;;;;;;25.33;17.13;;;9.80;99.90;;;;;;5062437;28;20171;-63
2023/10/27 05:05:47;;;;;;;26.33;15.00;;;9.80;99.90;;;;;;5070386;28;20300;-63
2023/10/27 05:08:13;;;;;;;27.80;16.40;;;9.80;99.90;;;;;;5070798;28;20190;-65
2023/10/27 05:10:40;;;;;;;29.30;16.20;;;9.80;99.90;;;;;;5065114;28;20194;-65
2023/10/27 05:13:06;;;;;;;25.00;16.10;;;9.90;99.90;;;;;;5054542;28;20225;-64
2023/10/27 05:15:32;;;;;;;25.83;14.10;;;9.80;99.90;;;;;;5054019;28;20495;-61
2023/10/27 05:18:04;;;;;;;26.20;15.30;;;9.80;99.90;;;;;;5036618;28;20824;-63
2023/10/27 05:20:35;;;;;;;21.37;13.53;;;9.80;99.90;;;;;;5054504;28;20426;-64
2023/10/27 05:23:00;;;;;;;24.33;14.93;;;9.80;99.90;;;;;;5053937;28;20420;-63
2023/10/27 05:25:26;;;;;;;23.50;14.40;;;9.80;99.90;;;;;;5053486;28;20433;-64
2023/10/27 05:27:51;;;;;;;25.93;14.77;;;9.80;99.90;;;;;;5052377;28;20720;-63
2023/10/27 05:30:17;;;;;;;23.90;13.90;;;9.80;99.90;;;;;;5053786;28;20171;-64
2023/10/27 05:32:42;;;;;;;24.00;15.20;;;9.80;99.90;;;;;;5053868;28;20166;-63
2023/10/27 05:35:08;;;;;;;22.60;13.53;;;9.80;99.90;;;;;;5053517;28;20205;-63
2023/10/27 05:37:34;;;;;;;25.60;15.10;;;9.80;99.90;;;;;;5053909;28;20539;-64
2023/10/27 05:39:59;;;;;;;29.07;15.77;;;9.80;99.90;;;;;;5053773;28;20175;-64
2023/10/27 05:42:25;;;;;;;28.57;15.37;;;9.80;99.90;;;;;;5053922;28;20641;-64
2023/10/27 05:44:50;;;;;;;29.23;15.33;;;9.80;99.90;;;;;;5061812;28;20178;-64
2023/10/27 05:47:16;;;;;;;28.00;15.40;;;9.80;99.90;;;;;;5055226;28;20201;-63
2023/10/27 05:49:41;;;;;;;31.70;16.17;;;9.80;99.90;;;;;;5053565;28;20179;-64
2023/10/27 05:52:07;;;;;;;24.13;15.10;;;9.80;99.90;;;;;;5053968;28;20170;-63
2023/10/27 05:54:33;;;;;;;27.37;16.00;;;9.70;99.90;;;;;;5050129;28;20604;-64
2023/10/27 05:56:58;;;;;;;27.73;15.10;;;9.70;99.90;;;;;;5052888;28;20256;-63
2023/10/27 05:59:24;;;;;;;27.23;15.23;;;9.70;99.90;;;;;;5053241;28;20175;-62
2023/10/27 06:01:53;;;;;;;29.27;14.87;;;9.80;99.90;;;;;;5052706;28;20572;-63
2023/10/27 06:04:18;;;;;;;27.73;15.70;;;9.70;99.90;;;;;;5053600;28;20677;-63
2023/10/27 06:06:44;;;;;;;31.17;15.60;;;9.70;99.90;;;;;;5053028;28;20476;-63
2023/10/27 06:09:09;;;;;;;30.07;16.40;;;9.70;99.90;;;;;;5052787;28;20531;-63
2023/10/27 06:11:35;;;;;;;32.33;14.93;;;9.70;99.90;;;;;;5051371;28;20242;-64
2023/10/27 06:14:02;;;;;;;25.20;13.20;;;9.70;99.90;;;;;;5052580;28;20171;-63
2023/10/27 06:16:28;;;;;;;29.87;16.60;;;9.80;99.90;;;;;;5049877;28;20252;-64
2023/10/27 06:18:54;;;;;;;28.93;14.37;;;9.80;99.90;;;;;;5053097;28;20520;-64
2023/10/27 06:21:19;;;;;;;27.67;13.57;;;9.80;99.90;;;;;;5049104;28;20283;-64
2023/10/27 06:23:45;;;;;;;29.00;14.80;;;9.80;99.90;;;;;;5052282;28;20460;-64
2023/10/27 06:26:11;;;;;;;27.33;14.83;;;9.80;99.90;;;;;;5051472;28;20194;-64
2023/10/27 06:28:36;;;;;;;35.50;16.00;;;9.80;99.90;;;;;;5052999;28;20286;-63
2023/10/27 06:31:05;;;;;;;26.07;14.87;;;9.70;99.90;;;;;;5052467;28;20252;-64
2023/10/27 06:33:33;;;;;;;32.10;15.33;;;9.80;99.90;;;;;;5052940;28;20178;-62
2023/10/27 06:36:00;;;;;;;34.40;15.90;;;9.80;99.90;;;;;;5053243;28;20515;-64
2023/10/27 06:38:26;;;;;;;39.67;16.93;;;9.80;99.90;;;;;;5033207;28;20429;-64
2023/10/27 06:40:51;;;;;;;34.33;16.90;;;9.80;99.90;;;;;;5053187;28;20424;-63
2023/10/27 06:43:18;;;;;;;31.73;16.70;;;9.80;99.90;;;;;;5050786;28;20426;-63
2023/10/27 06:45:44;;;;;;;37.43;16.57;;;9.80;99.90;;;;;;5050112;28;20198;-64
2023/10/27 06:48:09;;;;;;;33.10;17.23;;;9.80;99.90;;;;;;5052210;28;20467;-64
2023/10/27 06:50:35;;;;;;;34.30;16.10;;;9.80;99.90;;;;;;5035200;28;20178;-63
2023/10/27 06:53:00;;;;;;;32.73;17.97;;;9.80;99.90;;;;;;5052069;28;20190;-65
2023/10/27 06:55:26;;;;;;;27.17;16.17;;;9.80;99.90;;;;;;5049514;28;20197;-64
2023/10/27 06:57:52;;;;;;;37.10;17.70;;;9.80;99.90;;;;;;5051544;28;20175;-65
2023/10/27 07:00:18;;;;;;;35.73;17.20;;;9.80;99.90;;;;;;5050552;28;20215;-64
2023/10/27 07:02:43;;;;;;;37.87;19.40;;;9.80;99.90;;;;;;5051981;28;20179;-62
2023/10/27 07:05:13;;;;;;;31.83;17.40;;;9.80;99.90;;;;;;5052177;28;20449;-64
2023/10/27 07:07:42;;;;;;;38.37;19.63;;;9.80;99.90;;;;;;5051752;28;20288;-64
2023/10/27 07:10:08;;;;;;;33.57;19.10;;;9.80;99.90;;;;;;5034593;28;20440;-63
2023/10/27 07:12:34;;;;;;;31.93;16.60;;;9.80;99.90;;;;;;5049449;28;20434;-64
2023/10/27 07:14:59;;;;;;;34.30;19.67;;;9.80;99.90;;;;;;5051482;28;20732;-64
2023/10/27 07:17:25;;;;;;;34.40;17.20;;;9.90;99.90;;;;;;5050895;28;20175;-66
2023/10/27 07:19:50;;;;;;;35.00;19.10;;;9.90;99.90;;;;;;5052167;28;20182;-65
2023/10/27 07:22:17;;;;;;;35.10;19.73;;;10.00;99.90;;;;;;5051928;28;20301;-65
2023/10/27 07:24:43;;;;;;;30.17;17.50;;;10.00;99.90;;;;;;5051698;28;20201;-65
2023/10/27 07:27:09;;;;;;;32.00;16.10;;;10.00;99.90;;;;;;5049213;28;20460;-64
2023/10/27 07:29:34;;;;;;;28.13;15.77;;;10.00;99.90;;;;;;5049597;28;20494;-64
2023/10/27 07:32:00;;;;;;;27.33;17.00;;;10.00;99.90;;;;;;5048137;28;20337;-65
2023/10/27 07:34:25;;;;;;;32.33;17.83;;;10.00;99.90;;;;;;5057265;28;20547;-64
2023/10/27 07:36:53;;;;;;;24.23;14.33;;;10.00;99.90;;;;;;5057497;28;20477;-64
2023/10/27 07:39:19;;;;;;;28.37;17.87;;;10.00;99.90;;;;;;5051617;28;20292;-63
2023/10/27 07:41:45;;;;;;;31.03;16.63;;;10.10;99.90;;;;;;5051372;28;20488;-62
2023/10/27 07:44:10;;;;;;;27.73;16.27;;;10.10;99.90;;;;;;5050864;28;20504;-63
2023/10/27 07:46:36;;;;;;;29.00;15.40;;;10.10;99.90;;;;;;5048783;28;20194;-64
2023/10/27 07:49:01;;;;;;;30.03;18.93;;;10.10;99.90;;;;;;5047469;28;20270;-66
2023/10/27 07:51:27;;;;;;;33.83;17.80;;;10.10;99.90;;;;;;5050667;28;20641;-64
2023/10/27 07:53:53;;;;;;;31.27;15.67;;;10.10;99.90;;;;;;5051017;28;20171;-65
2023/10/27 07:56:19;;;;;;;29.20;17.47;;;10.10;99.90;;;;;;5033711;28;20281;-61
2023/10/27 07:58:45;;;;;;;28.23;16.23;;;10.10;99.90;;;;;;5051068;28;20194;-65
2023/10/27 08:01:11;;;;;;;30.50;15.97;;;10.10;99.90;;;;;;5012425;28;20175;-64
2023/10/27 08:03:38;;;;;;;29.20;16.63;;;10.10;99.90;;;;;;5049482;28;20421;-65
2023/10/27 08:06:10;;;;;;;27.00;14.90;;;10.20;99.90;;;;;;5052634;28;20296;-64
2023/10/27 08:08:38;;;;;;;34.07;18.13;;;10.20;99.90;;;;;;5042428;28;21344;-66
2023/10/27 08:11:04;;;;;;;28.90;17.23;;;10.20;99.90;;;;;;5048468;28;20492;-66
2023/10/27 08:13:31;;;;;;;27.80;15.93;;;10.20;99.90;;;;;;5049579;28;20440;-65
2023/10/27 08:15:58;;;;;;;26.50;16.23;;;10.20;99.90;;;;;;5045638;28;20507;-65
2023/10/27 08:18:23;;;;;;;27.23;16.40;;;10.10;99.90;;;;;;5050943;28;20424;-64
2023/10/27 08:20:52;;;;;;;28.27;15.53;;;10.20;99.90;;;;;;5031872;28;20437;-64
2023/10/27 08:23:18;;;;;;;24.47;14.40;;;10.20;99.90;;;;;;5051348;28;20179;-65
2023/10/27 08:25:52;;;;;;;26.30;16.30;;;10.30;99.90;;;;;;5051030;28;20782;-65
2023/10/27 08:28:18;;;;;;;23.60;15.03;;;10.30;99.90;;;;;;5048556;28;20488;-65
2023/10/27 08:30:44;;;;;;;27.97;16.20;;;10.30;99.90;;;;;;5050933;28;20409;-65
2023/10/27 08:33:10;;;;;;;27.67;15.97;;;10.30;99.90;;;;;;5051093;28;20406;-65
2023/10/27 08:35:36;;;;;;;21.23;13.47;;;10.30;99.90;;;;;;5049980;28;20559;-64
2023/10/27 08:38:01;;;;;;;27.87;15.83;;;10.20;99.90;;;;;;5050459;28;20425;-64
2023/10/27 08:40:30;;;;;;;22.80;15.53;;;10.30;99.90;;;;;;5051410;28;20177;-65
2023/10/27 08:42:56;;;;;;;22.20;13.80;;;10.30;99.90;;;;;;5057671;28;20178;-64
2023/10/27 08:45:23;;;;;;;20.93;16.03;;;10.30;99.90;;;;;;5058105;28;20789;-64
2023/10/27 08:47:49;;;;;;;21.77;15.07;;;10.30;99.90;;;;;;5054824;28;21042;-65
2023/10/27 08:50:14;;;;;;;23.13;16.23;;;10.30;99.90;;;;;;5049222;28;20405;-65
2023/10/27 08:52:40;;;;;;;22.00;12.80;;;10.40;99.90;;;;;;5070882;28;20765;-64
2023/10/27 08:55:10;;;;;;;24.50;14.77;;;10.40;99.90;;;;;;5074538;28;20186;-64
2023/10/27 08:57:39;;;;;;;24.40;14.63;;;10.40;99.90;;;;;;5067030;28;20672;-65
2023/10/27 09:00:08;;;;;;;21.30;14.83;;;10.40;99.90;;;;;;5040869;28;20803;-65
2023/10/27 09:02:38;;;;;;;30.77;15.43;;;10.30;99.90;;;;;;5054475;28;20462;-64
2023/10/27 09:05:06;;;;;;;27.77;15.60;;;10.40;99.90;;;;;;5054349;28;20849;-64
2023/10/27 09:07:33;;;;;;;28.93;15.03;;;10.40;99.90;;;;;;5054267;28;20985;-64
2023/10/27 09:10:00;;;;;;;21.17;14.60;;;10.40;99.90;;;;;;5054505;28;20504;-65
2023/10/27 09:12:28;;;;;;;24.37;15.33;;;10.50;99.90;;;;;;5054458;28;20410;-65
2023/10/27 09:15:07;;;;;;;22.10;14.23;;;10.50;99.90;;;;;;5052386;28;20490;-65
2023/10/27 09:17:56;;;;;;;23.70;16.50;;;10.40;99.90;;;;;;5049176;28;20811;-65
2023/10/27 09:20:26;;;;;;;21.77;14.17;;;10.40;99.90;;;;;;5054332;28;20437;-65
2023/10/27 09:23:05;;;;;;;26.40;14.20;;;10.40;99.90;;;;;;5054319;28;20413;-63
2023/10/27 09:25:32;;;;;;;23.47;14.10;;;10.40;99.90;;;;;;5054577;28;20433;-64
2023/10/27 09:27:59;;;;;;;23.50;14.37;;;10.40;99.90;;;;;;5053821;28;20518;-65
2023/10/27 09:30:34;;;;;;;29.03;16.60;;;10.40;99.90;;;;;;5052624;28;20429;-65
2023/10/27 09:33:21;;;;;;;20.53;13.60;;;10.40;99.90;;;;;;5054231;28;20946;-65
2023/10/27 09:35:48;;;;;;;25.07;15.20;;;10.40;99.90;;;;;;5050499;28;20429;-63
2023/10/27 09:38:14;;;;;;;28.80;13.90;;;10.40;99.90;;;;;;5054075;28;20409;-65
2023/10/27 09:40:42;;;;;;;20.03;13.73;;;10.40;99.90;;;;;;5054064;28;20509;-65
2023/10/27 09:43:14;;;;;;;22.00;15.60;;;10.40;99.90;;;;;;5062221;28;20422;-64
2023/10/27 09:46:03;;;;;;;20.03;13.63;;;10.50;99.90;;;;;;5055897;28;20436;-65
2023/10/27 09:48:32;;;;;;;26.40;16.10;;;10.50;99.90;;;;;;5052116;28;20454;-65
2023/10/27 09:51:11;;;;;;;22.27;13.23;;;10.50;99.90;;;;;;5044910;28;20414;-64
2023/10/27 09:53:39;;;;;;;20.13;13.87;;;10.50;99.90;;;;;;5049052;28;20907;-64
2023/10/27 09:56:05;;;;;;;20.07;13.20;;;10.50;99.90;;;;;;5050185;28;20434;-64
2023/10/27 09:58:33;;;;;;;18.93;12.80;;;10.60;99.90;;;;;;5065948;28;20858;-64
2023/10/27 10:01:00;;;;;;;20.87;13.27;;;10.70;99.90;;;;;;5053593;28;20421;-64
2023/10/27 10:03:29;;;;;;;17.87;13.40;;;10.70;99.90;;;;;;5053352;28;20421;-64
2023/10/27 10:06:18;;;;;;;19.80;13.60;;;10.70;99.90;;;;;;5053330;28;20449;-65
2023/10/27 10:09:16;;;;;;;20.23;13.40;;;10.80;99.90;;;;;;5052859;28;20465;-64
2023/10/27 10:11:47;;;;;;;17.80;12.40;;;10.90;99.90;;;;;;5009109;28;20414;-64
2023/10/27 10:14:42;;;;;;;18.20;12.50;;;10.80;99.90;;;;;;5053416;28;20398;-63
2023/10/27 10:17:08;;;;;;;15.10;11.40;;;10.80;99.90;;;;;;5053271;28;20934;-64
2023/10/27 10:19:50;;;;;;;20.87;13.23;;;10.80;99.90;;;;;;5051106;28;20789;-64
2023/10/27 10:22:37;;;;;;;15.63;11.83;;;10.80;99.90;;;;;;5065010;28;20446;-63
2023/10/27 10:25:14;;;;;;;18.83;12.50;;;10.80;99.90;;;;;;5066240;28;20586;-65
2023/10/27 10:28:08;;;;;;;19.43;11.13;;;10.70;99.90;;;;;;5053452;28;20448;-64
2023/10/27 10:30:38;;;;;;;12.60;9.97;;;10.70;99.90;;;;;;5053233;28;20412;-63
2023/10/27 10:33:26;;;;;;;14.77;11.67;;;10.70;99.90;;;;;;5053045;28;20846;-63
2023/10/27 10:35:52;;;;;;;14.23;10.23;;;10.80;99.90;;;;;;5049979;28;20433;-64
2023/10/27 10:38:24;;;;;;;14.50;10.00;;;10.80;99.90;;;;;;5063827;28;20405;-64
2023/10/27 10:40:55;;;;;;;17.43;11.77;;;10.70;99.90;;;;;;5073017;28;20441;-62
2023/10/27 10:43:25;;;;;;;14.07;11.53;;;10.70;99.90;;;;;;5053182;28;20425;-63
2023/10/27 10:45:59;;;;;;;15.83;11.27;;;10.70;99.90;;;;;;5052615;28;20429;-64
2023/10/27 10:48:27;;;;;;;11.27;10.07;;;10.80;99.90;;;;;;5053039;28;20908;-64
2023/10/27 10:50:55;;;;;;;10.73;8.60;;;10.90;99.90;;;;;;5052891;28;20829;-65
2023/10/27 10:53:24;;;;;;;12.73;9.10;;;10.80;99.90;;;;;;5052160;28;20406;-63
2023/10/27 10:55:51;;;;;;;13.20;8.33;;;10.70;99.90;;;;;;5052802;28;20936;-65
2023/10/27 10:58:31;;;;;;;11.23;8.80;;;10.70;99.90;;;;;;5050947;28;20800;-64
2023/10/27 11:00:58;;;;;;;10.67;8.60;;;10.70;99.90;;;;;;5053061;28;20440;-65
2023/10/27 11:03:25;;;;;;;14.37;9.50;;;10.70;99.90;;;;;;5052894;28;20441;-65
2023/10/27 11:05:54;;;;;;;12.40;8.53;;;10.70;99.90;;;;;;5052212;28;20936;-63
2023/10/27 11:08:27;;;;;;;8.93;7.10;;;10.70;99.90;;;;;;5052455;28;20452;-65
2023/10/27 11:10:59;;;;;;;10.07;7.60;;;10.70;99.90;;;;;;5052448;28;20420;-65
2023/10/27 11:13:26;;;;;;;11.10;8.43;;;10.70;99.90;;;;;;5051866;28;20927;-64
2023/10/27 11:15:52;;;;;;;12.40;9.50;;;10.80;99.90;;;;;;5035564;28;20453;-63
2023/10/27 11:18:18;;;;;;;9.73;7.90;;;10.90;99.90;;;;;;5052243;28;20493;-65
2023/10/27 11:20:44;;;;;;;10.60;8.43;;;10.90;99.90;;;;;;5050983;28;20425;-65
2023/10/27 11:23:11;;;;;;;13.40;8.20;;;10.90;99.90;;;;;;5052144;28;20183;-65
2023/10/27 11:25:38;;;;;;;9.80;8.37;;;10.90;99.90;;;;;;5051934;28;20968;-65
2023/10/27 11:28:22;;;;;;;11.80;8.73;;;10.90;99.90;;;;;;5052090;28;20911;-65
2023/10/27 11:31:28;;;;;;;11.33;9.00;;;10.90;99.90;;;;;;5052043;28;20402;-64
2023/10/27 11:34:02;;;;;;;13.80;9.20;;;10.90;99.90;;;;;;5045256;28;20502;-64
2023/10/27 11:36:40;;;;;;;12.27;9.90;;;10.90;99.90;;;;;;5071999;28;20566;-64
2023/10/27 11:39:22;;;;;;;13.30;9.67;;;10.90;99.90;;;;;;5071919;28;20404;-64
2023/10/27 11:42:00;;;;;;;12.50;9.30;;;10.90;99.90;;;;;;5050468;28;20432;-65
2023/10/27 11:44:30;;;;;;;17.47;11.87;;;10.90;99.90;;;;;;5059431;28;20976;-65
2023/10/27 11:46:58;;;;;;;14.20;11.00;;;10.90;99.90;;;;;;5054900;28;20981;-65
2023/10/27 11:49:25;;;;;;;14.00;10.60;;;10.80;99.90;;;;;;5052737;28;20406;-65
2023/10/27 11:51:53;;;;;;;14.60;11.10;;;10.90;99.90;;;;;;5038912;28;20522;-65
2023/10/27 11:54:20;;;;;;;14.37;11.20;;;10.90;99.90;;;;;;5044403;28;20475;-65
2023/10/27 11:56:46;;;;;;;17.87;11.30;;;10.90;99.90;;;;;;5046550;28;20473;-64
2023/10/27 11:59:12;;;;;;;14.07;11.13;;;10.90;99.90;;;;;;5054069;28;20424;-65
2023/10/27 12:01:39;;;;;;;14.77;10.60;;;10.90;99.90;;;;;;5047250;28;20421;-64
2023/10/27 12:04:10;;;;;;;14.33;11.80;;;11.00;99.90;;;;;;5045791;28;20175;-65
2023/10/27 12:06:45;;;;;;;12.73;10.47;;;10.90;99.90;;;;;;5046031;28;20464;-64
2023/10/27 12:09:14;;;;;;;15.87;11.87;;;10.90;99.90;;;;;;5053374;28;20531;-65
2023/10/27 12:11:41;;;;;;;15.30;11.67;;;10.90;99.90;;;;;;5059945;28;20935;-62
2023/10/27 12:14:06;;;;;;;15.13;9.70;;;10.90;99.90;;;;;;5052545;28;20930;-64
2023/10/27 12:16:32;;;;;;;14.30;10.57;;;10.90;99.90;;;;;;5051242;28;20433;-63
2023/10/27 12:18:57;;;;;;;13.43;10.53;;;10.90;99.90;;;;;;5050178;28;20167;-64
2023/10/27 12:21:24;;;;;;;18.03;12.23;;;10.90;99.90;;;;;;5046946;28;20472;-64
2023/10/27 12:23:50;;;;;;;12.57;10.30;;;10.80;99.90;;;;;;5050904;28;20660;-65
2023/10/27 12:26:16;;;;;;;14.43;11.10;;;10.80;99.90;;;;;;5054906;28;20433;-65
2023/10/27 12:28:42;;;;;;;14.30;9.70;;;10.80;99.90;;;;;;5050197;28;20484;-64
2023/10/27 12:31:07;;;;;;;14.37;10.83;;;10.80;99.90;;;;;;5051021;28;20566;-65
2023/10/27 12:33:33;;;;;;;13.17;10.30;;;10.70;99.90;;;;;;5054564;28;20175;-65